sensor_id;sensor_type;location;lat;lon;timestamp;pressure;altitude;pressure_sealevel;temperature;humidity
57412;BME280;43247;52.828;-8.980;2022-12-07T07:25:53;102718.40;;;22.04;52.10
57412;BME280;43247;52.828;-8.980;2022-12-07T07:30:07;102719.42;;;23.61;48.99
57412;BME280;43247;52.828;-8.980;2022-12-07T07:32:34;102720.28;;;23.68;48.33
57412;BME280;43247;52.828;-8.980;2022-12-07T07:35:05;102722.18;;;23.50;48.71
57412;BME280;43247;52.828;-8.980;2022-12-07T07:37:34;102721.56;;;23.60;48.54
57412;BME280;43247;52.828;-8.980;2022-12-07T07:40:08;102718.79;;;23.67;48.32
57412;BME280;43247;52.828;-8.980;2022-12-07T07:42:36;102715.81;;;23.11;49.62
57412;BME280;43247;52.828;-8.980;2022-12-07T07:45:07;102721.94;;;23.36;48.96
57412;BME280;43247;52.828;-8.980;2022-12-07T07:47:37;102719.74;;;23.43;48.58
57412;BME280;43247;52.828;-8.980;2022-12-07T07:50:08;102724.78;;;23.48;48.69
57412;BME280;43247;52.828;-8.980;2022-12-07T07:52:38;102726.28;;;23.41;48.74
57412;BME280;43247;52.828;-8.980;2022-12-07T07:55:09;102726.10;;;23.72;48.35
57412;BME280;43247;52.828;-8.980;2022-12-07T07:57:40;102729.92;;;23.73;48.47
57412;BME280;43247;52.828;-8.980;2022-12-07T08:00:12;102727.51;;;23.61;49.02
57412;BME280;43247;52.828;-8.980;2022-12-07T08:02:40;102726.21;;;23.89;48.41
57412;BME280;43247;52.828;-8.980;2022-12-07T08:05:10;102728.37;;;23.87;48.45
57412;BME280;43247;52.828;-8.980;2022-12-07T08:07:40;102721.87;;;23.72;48.81
57412;BME280;43247;52.828;-8.980;2022-12-07T08:10:12;102726.06;;;23.58;48.72
57412;BME280;43247;52.828;-8.980;2022-12-07T08:12:42;102731.18;;;23.57;48.33
57412;BME280;43247;52.828;-8.980;2022-12-07T08:15:12;102735.72;;;23.57;48.10
57412;BME280;43247;52.828;-8.980;2022-12-07T08:17:42;102738.96;;;23.45;48.60
57412;BME280;43247;52.828;-8.980;2022-12-07T08:20:12;102733.43;;;23.30;48.76
57412;BME280;43247;52.828;-8.980;2022-12-07T08:22:43;102728.46;;;23.16;48.78
57412;BME280;43247;52.828;-8.980;2022-12-07T08:25:13;102726.90;;;22.99;48.98
57412;BME280;43247;52.828;-8.980;2022-12-07T08:27:43;102728.86;;;23.32;48.40
57412;BME280;43247;52.828;-8.980;2022-12-07T08:30:14;102722.52;;;23.18;48.66
57412;BME280;43247;52.828;-8.980;2022-12-07T08:32:46;102718.42;;;23.05;48.90
57412;BME280;43247;52.828;-8.980;2022-12-07T08:35:16;102718.71;;;23.05;48.96
57412;BME280;43247;52.828;-8.980;2022-12-07T08:37:45;102721.92;;;23.18;48.91
57412;BME280;43247;52.828;-8.980;2022-12-07T08:40:16;102714.86;;;23.23;48.69
57412;BME280;43247;52.828;-8.980;2022-12-07T08:42:48;102717.96;;;23.51;48.00
57412;BME280;43247;52.828;-8.980;2022-12-07T08:45:17;102717.87;;;23.48;48.19
57412;BME280;43247;52.828;-8.980;2022-12-07T08:47:52;102717.75;;;23.41;48.24
57412;BME280;43247;52.828;-8.980;2022-12-07T08:50:17;102718.41;;;23.73;48.51
57412;BME280;43247;52.828;-8.980;2022-12-07T08:52:50;102722.79;;;24.59;47.88
57412;BME280;43247;52.828;-8.980;2022-12-07T08:55:18;102724.32;;;25.35;45.90
57412;BME280;43247;52.828;-8.980;2022-12-07T08:57:48;102714.18;;;25.41;45.50
57412;BME280;43247;52.828;-8.980;2022-12-07T09:00:18;102715.78;;;25.07;46.23
57412;BME280;43247;52.828;-8.980;2022-12-07T09:02:48;102711.33;;;24.80;46.69
57412;BME280;43247;52.828;-8.980;2022-12-07T09:05:19;102714.51;;;24.71;46.88
57412;BME280;43247;52.828;-8.980;2022-12-07T09:07:52;102715.14;;;24.51;47.58
57412;BME280;43247;52.828;-8.980;2022-12-07T09:10:19;102720.77;;;24.18;47.63
57412;BME280;43247;52.828;-8.980;2022-12-07T09:12:51;102718.04;;;24.84;46.78
57412;BME280;43247;52.828;-8.980;2022-12-07T09:15:21;102715.54;;;25.13;47.01
57412;BME280;43247;52.828;-8.980;2022-12-07T09:17:51;102712.59;;;25.53;44.97
57412;BME280;43247;52.828;-8.980;2022-12-07T09:20:22;102716.06;;;24.83;46.20
57412;BME280;43247;52.828;-8.980;2022-12-07T09:22:51;102717.48;;;24.18;47.67
57412;BME280;43247;52.828;-8.980;2022-12-07T09:25:22;102716.60;;;23.51;48.96
57412;BME280;43247;52.828;-8.980;2022-12-07T09:27:56;102724.14;;;23.92;48.44
57412;BME280;43247;52.828;-8.980;2022-12-07T09:32:42;102714.52;;;24.43;47.64
57412;BME280;43247;52.828;-8.980;2022-12-07T09:35:11;102712.01;;;24.32;47.72
57412;BME280;43247;52.828;-8.980;2022-12-07T09:37:42;102710.15;;;23.71;49.14
57412;BME280;43247;52.828;-8.980;2022-12-07T09:40:12;102703.74;;;23.87;48.40
57412;BME280;43247;52.828;-8.980;2022-12-07T09:42:44;102700.82;;;24.24;47.52
57412;BME280;43247;52.828;-8.980;2022-12-07T09:45:15;102700.56;;;23.52;48.99
57412;BME280;43247;52.828;-8.980;2022-12-07T09:47:43;102713.83;;;23.31;51.82
57412;BME280;43247;52.828;-8.980;2022-12-07T09:50:14;102722.35;;;24.00;48.06
57412;BME280;43247;52.828;-8.980;2022-12-07T09:52:45;102712.28;;;23.66;49.59
57412;BME280;43247;52.828;-8.980;2022-12-07T12:50:39;102546.47;;;26.57;43.63
57412;BME280;43247;52.828;-8.980;2022-12-07T12:53:16;102546.11;;;27.20;42.31
57412;BME280;43247;52.828;-8.980;2022-12-07T12:56:25;102544.21;;;28.20;40.67
57412;BME280;43247;52.828;-8.980;2022-12-07T12:58:43;102544.51;;;28.54;39.71
57412;BME280;43247;52.828;-8.980;2022-12-07T13:03:52;102540.80;;;29.55;38.29
57412;BME280;43247;52.828;-8.980;2022-12-07T13:06:19;102534.73;;;30.14;37.75
57412;BME280;43247;52.828;-8.980;2022-12-07T13:08:45;102534.70;;;29.85;37.26
57412;BME280;43247;52.828;-8.980;2022-12-07T13:11:25;102534.10;;;29.94;37.46
57412;BME280;43247;52.828;-8.980;2022-12-07T13:13:46;102534.56;;;30.49;36.10
57412;BME280;43247;52.828;-8.980;2022-12-07T13:18:47;102529.02;;;30.72;35.66
57412;BME280;43247;52.828;-8.980;2022-12-07T13:23:54;102524.82;;;31.10;35.05
57412;BME280;43247;52.828;-8.980;2022-12-07T13:26:20;102523.34;;;29.99;39.23
57412;BME280;43247;52.828;-8.980;2022-12-07T13:28:50;102518.78;;;30.06;38.36
57412;BME280;43247;52.828;-8.980;2022-12-07T13:33:49;102514.45;;;30.04;38.05
57412;BME280;43247;52.828;-8.980;2022-12-07T13:36:22;102514.27;;;29.83;38.57
57412;BME280;43247;52.828;-8.980;2022-12-07T13:38:51;102505.13;;;29.26;38.98
57412;BME280;43247;52.828;-8.980;2022-12-07T13:41:20;102503.14;;;28.94;39.56
57412;BME280;43247;52.828;-8.980;2022-12-07T13:43:51;102502.13;;;28.79;39.73
57412;BME280;43247;52.828;-8.980;2022-12-07T13:46:24;102502.04;;;28.65;40.14
57412;BME280;43247;52.828;-8.980;2022-12-07T13:48:50;102497.56;;;28.48;40.33
57412;BME280;43247;52.828;-8.980;2022-12-07T13:51:22;102499.53;;;28.64;39.90
57412;BME280;43247;52.828;-8.980;2022-12-07T14:04:30;102476.00;;;25.51;47.03
57412;BME280;43247;52.828;-8.980;2022-12-07T14:06:51;102470.85;;;25.72;47.17
57412;BME280;43247;52.828;-8.980;2022-12-07T14:09:23;102469.65;;;26.55;45.13
57412;BME280;43247;52.828;-8.980;2022-12-07T14:11:53;102465.36;;;27.23;43.47
57412;BME280;43247;52.828;-8.980;2022-12-07T14:14:25;102465.45;;;27.60;42.54
57412;BME280;43247;52.828;-8.980;2022-12-07T14:16:59;102457.36;;;27.55;42.00
57412;BME280;43247;52.828;-8.980;2022-12-07T14:22:54;102450.54;;;28.12;41.20
57412;BME280;43247;52.828;-8.980;2022-12-07T14:25:20;102446.45;;;27.76;41.14
57412;BME280;43247;52.828;-8.980;2022-12-07T14:27:51;102442.56;;;27.63;42.26
57412;BME280;43247;52.828;-8.980;2022-12-07T14:30:19;102441.30;;;27.48;42.82
57412;BME280;43247;52.828;-8.980;2022-12-07T14:32:52;102431.87;;;27.55;42.52
57412;BME280;43247;52.828;-8.980;2022-12-07T14:35:20;102427.74;;;27.59;42.53
57412;BME280;43247;52.828;-8.980;2022-12-07T14:37:50;102424.94;;;27.46;42.41
57412;BME280;43247;52.828;-8.980;2022-12-07T14:40:22;102426.37;;;27.50;41.83
57412;BME280;43247;52.828;-8.980;2022-12-07T14:42:53;102429.91;;;27.32;41.94
57412;BME280;43247;52.828;-8.980;2022-12-07T14:45:22;102427.22;;;27.50;41.60
57412;BME280;43247;52.828;-8.980;2022-12-07T14:47:51;102426.25;;;27.52;41.30
57412;BME280;43247;52.828;-8.980;2022-12-07T14:50:22;102422.99;;;26.80;43.42
57412;BME280;43247;52.828;-8.980;2022-12-07T14:52:56;102424.00;;;27.37;42.50
57412;BME280;43247;52.828;-8.980;2022-12-07T14:59:18;102408.38;;;16.59;68.95
57412;BME280;43247;52.828;-8.980;2022-12-07T15:01:47;102407.26;;;18.87;62.38
57412;BME280;43247;52.828;-8.980;2022-12-07T15:04:17;102403.84;;;19.74;59.82
57412;BME280;43247;52.828;-8.980;2022-12-07T15:14:16;102388.19;;;21.55;54.94
57412;BME280;43247;52.828;-8.980;2022-12-07T15:16:46;102393.70;;;21.47;55.17
57412;BME280;43247;52.828;-8.980;2022-12-07T15:17:46;102393.18;;;21.46;55.32
57412;BME280;43247;52.828;-8.980;2022-12-07T15:18:32;102392.08;;;21.66;54.90
57412;BME280;43247;52.828;-8.980;2022-12-07T15:23:41;102387.88;;;20.48;57.64
57412;BME280;43247;52.828;-8.980;2022-12-07T15:26:11;102391.87;;;20.60;57.92
57412;BME280;43247;52.828;-8.980;2022-12-07T15:28:41;102388.04;;;20.65;57.61
57412;BME280;43247;52.828;-8.980;2022-12-07T15:31:12;102383.50;;;19.68;59.68
57412;BME280;43247;52.828;-8.980;2022-12-07T15:33:42;102378.96;;;19.76;59.66
57412;BME280;43247;52.828;-8.980;2022-12-07T15:36:18;102380.71;;;19.43;60.43
57412;BME280;43247;52.828;-8.980;2022-12-07T15:38:43;102380.97;;;19.23;60.92
57412;BME280;43247;52.828;-8.980;2022-12-07T15:41:13;102378.83;;;18.94;61.66
57412;BME280;43247;52.828;-8.980;2022-12-07T15:43:44;102378.70;;;18.86;61.91
57412;BME280;43247;52.828;-8.980;2022-12-07T15:46:14;102379.43;;;18.38;63.19
57412;BME280;43247;52.828;-8.980;2022-12-07T15:48:46;102377.33;;;18.43;62.97
57412;BME280;43247;52.828;-8.980;2022-12-07T15:51:14;102377.00;;;18.89;61.77
57412;BME280;43247;52.828;-8.980;2022-12-07T15:53:45;102369.60;;;18.35;63.06
57412;BME280;43247;52.828;-8.980;2022-12-07T15:56:16;102365.34;;;18.36;63.11
57412;BME280;43247;52.828;-8.980;2022-12-07T15:58:46;102369.15;;;18.48;62.53
57412;BME280;43247;52.828;-8.980;2022-12-07T16:01:18;102366.95;;;18.57;62.12
57412;BME280;43247;52.828;-8.980;2022-12-07T16:03:47;102359.93;;;18.54;61.84
57412;BME280;43247;52.828;-8.980;2022-12-07T16:06:18;102362.35;;;18.35;62.26
57412;BME280;43247;52.828;-8.980;2022-12-07T16:08:48;102363.84;;;18.14;62.66
57412;BME280;43247;52.828;-8.980;2022-12-07T16:11:18;102361.40;;;17.85;63.24
57412;BME280;43247;52.828;-8.980;2022-12-07T16:13:49;102358.57;;;17.90;62.96
57412;BME280;43247;52.828;-8.980;2022-12-07T16:16:19;102362.64;;;17.99;62.55
57412;BME280;43247;52.828;-8.980;2022-12-07T16:18:50;102366.75;;;18.12;62.21
57412;BME280;43247;52.828;-8.980;2022-12-07T16:21:20;102361.29;;;18.10;62.34
57412;BME280;43247;52.828;-8.980;2022-12-07T16:23:50;102362.65;;;19.04;60.36
57412;BME280;43247;52.828;-8.980;2022-12-07T16:26:22;102359.60;;;18.91;60.73
57412;BME280;43247;52.828;-8.980;2022-12-07T16:28:51;102360.90;;;18.70;61.62
57412;BME280;43247;52.828;-8.980;2022-12-07T16:31:23;102361.56;;;18.69;61.80
57412;BME280;43247;52.828;-8.980;2022-12-07T16:33:53;102363.09;;;18.32;62.73
57412;BME280;43247;52.828;-8.980;2022-12-07T16:36:22;102363.28;;;18.34;62.48
57412;BME280;43247;52.828;-8.980;2022-12-07T16:38:53;102359.93;;;18.25;62.80
57412;BME280;43247;52.828;-8.980;2022-12-07T16:41:23;102360.63;;;18.41;62.26
57412;BME280;43247;52.828;-8.980;2022-12-07T16:43:54;102357.79;;;18.86;60.96
57412;BME280;43247;52.828;-8.980;2022-12-07T16:46:24;102358.33;;;18.90;60.91
57412;BME280;43247;52.828;-8.980;2022-12-07T16:48:55;102354.37;;;19.33;59.95
57412;BME280;43247;52.828;-8.980;2022-12-07T16:51:26;102349.94;;;18.93;60.80
57412;BME280;43247;52.828;-8.980;2022-12-07T16:53:56;102350.48;;;19.13;60.06
57412;BME280;43247;52.828;-8.980;2022-12-07T16:56:26;102349.45;;;18.81;61.08
57412;BME280;43247;52.828;-8.980;2022-12-07T16:58:58;102344.15;;;18.77;61.05
57412;BME280;43247;52.828;-8.980;2022-12-07T17:01:27;102343.27;;;18.69;61.48
57412;BME280;43247;52.828;-8.980;2022-12-07T17:03:59;102342.70;;;18.85;61.13
57412;BME280;43247;52.828;-8.980;2022-12-07T17:06:28;102336.69;;;18.79;60.72
57412;BME280;43247;52.828;-8.980;2022-12-07T17:08:58;102334.49;;;18.57;61.26
57412;BME280;43247;52.828;-8.980;2022-12-07T17:11:30;102332.56;;;18.54;61.38
57412;BME280;43247;52.828;-8.980;2022-12-07T17:13:59;102333.34;;;18.83;60.42
57412;BME280;43247;52.828;-8.980;2022-12-07T17:16:30;102328.86;;;18.58;60.88
57412;BME280;43247;52.828;-8.980;2022-12-07T17:18:59;102322.46;;;18.91;60.07
57412;BME280;43247;52.828;-8.980;2022-12-07T17:21:30;102321.00;;;19.02;59.68
57412;BME280;43247;52.828;-8.980;2022-12-07T17:24:02;102319.94;;;18.90;60.07
57412;BME280;43247;52.828;-8.980;2022-12-07T17:26:31;102316.01;;;19.67;58.66
57412;BME280;43247;52.828;-8.980;2022-12-07T17:29:01;102316.80;;;19.52;59.01
57412;BME280;43247;52.828;-8.980;2022-12-07T17:31:32;102307.23;;;19.92;58.36
57412;BME280;43247;52.828;-8.980;2022-12-07T17:34:02;102303.79;;;20.18;57.67
57412;BME280;43247;52.828;-8.980;2022-12-07T17:36:33;102302.94;;;20.49;56.99
57412;BME280;43247;52.828;-8.980;2022-12-07T17:39:07;102307.89;;;19.35;59.78
57412;BME280;43247;52.828;-8.980;2022-12-07T17:41:34;102313.09;;;19.10;60.17
57412;BME280;43247;52.828;-8.980;2022-12-07T17:44:06;102316.86;;;19.03;60.20
57412;BME280;43247;52.828;-8.980;2022-12-07T17:46:35;102318.41;;;19.00;60.58
57412;BME280;43247;52.828;-8.980;2022-12-07T17:49:05;102312.16;;;19.24;60.24
57412;BME280;43247;52.828;-8.980;2022-12-07T17:51:35;102313.37;;;19.17;60.71
57412;BME280;43247;52.828;-8.980;2022-12-07T17:54:05;102310.09;;;19.35;60.38
57412;BME280;43247;52.828;-8.980;2022-12-07T17:56:36;102307.97;;;19.09;61.10
57412;BME280;43247;52.828;-8.980;2022-12-07T17:59:07;102300.75;;;19.31;60.67
57412;BME280;43247;52.828;-8.980;2022-12-07T18:01:37;102301.98;;;19.57;60.39
57412;BME280;43247;52.828;-8.980;2022-12-07T18:04:07;102304.90;;;19.04;61.78
57412;BME280;43247;52.828;-8.980;2022-12-07T18:06:38;102296.42;;;19.09;61.79
57412;BME280;43247;52.828;-8.980;2022-12-07T18:09:08;102297.14;;;19.14;61.87
57412;BME280;43247;52.828;-8.980;2022-12-07T18:11:38;102300.72;;;19.50;60.88
57412;BME280;43247;52.828;-8.980;2022-12-07T18:14:09;102301.20;;;19.06;62.17
57412;BME280;43247;52.828;-8.980;2022-12-07T18:16:39;102298.83;;;19.61;60.99
57412;BME280;43247;52.828;-8.980;2022-12-07T18:19:10;102297.27;;;19.12;62.38
57412;BME280;43247;52.828;-8.980;2022-12-07T18:21:41;102298.31;;;19.05;62.51
57412;BME280;43247;52.828;-8.980;2022-12-07T18:24:12;102291.86;;;19.13;62.73
57412;BME280;43247;52.828;-8.980;2022-12-07T18:26:43;102287.82;;;19.26;62.67
57412;BME280;43247;52.828;-8.980;2022-12-07T18:29:14;102283.38;;;19.33;62.54
57412;BME280;43247;52.828;-8.980;2022-12-07T18:31:42;102274.19;;;19.50;62.03
57412;BME280;43247;52.828;-8.980;2022-12-07T18:34:14;102274.14;;;19.49;62.49
57412;BME280;43247;52.828;-8.980;2022-12-07T18:36:44;102268.28;;;19.53;62.16
57412;BME280;43247;52.828;-8.980;2022-12-07T18:39:14;102267.73;;;19.65;61.87
57412;BME280;43247;52.828;-8.980;2022-12-07T18:41:44;102265.93;;;19.60;62.43
57412;BME280;43247;52.828;-8.980;2022-12-07T18:44:15;102263.78;;;19.64;62.13
57412;BME280;43247;52.828;-8.980;2022-12-07T18:46:46;102260.08;;;20.21;60.68
57412;BME280;43247;52.828;-8.980;2022-12-07T18:49:15;102259.68;;;19.80;61.76
57412;BME280;43247;52.828;-8.980;2022-12-07T18:51:46;102258.22;;;19.59;62.52
57412;BME280;43247;52.828;-8.980;2022-12-07T18:54:16;102255.28;;;20.11;61.43
57412;BME280;43247;52.828;-8.980;2022-12-07T18:56:47;102254.75;;;20.13;61.58
57412;BME280;43247;52.828;-8.980;2022-12-07T18:59:18;102256.16;;;19.32;63.55
57412;BME280;43247;52.828;-8.980;2022-12-07T19:01:51;102262.36;;;19.86;62.32
57412;BME280;43247;52.828;-8.980;2022-12-07T19:04:18;102255.46;;;20.14;61.51
57412;BME280;43247;52.828;-8.980;2022-12-07T19:06:49;102256.83;;;19.61;62.84
57412;BME280;43247;52.828;-8.980;2022-12-07T19:09:19;102252.24;;;19.61;62.97
57412;BME280;43247;52.828;-8.980;2022-12-07T19:11:50;102246.11;;;19.98;61.95
57412;BME280;43247;52.828;-8.980;2022-12-07T19:14:24;102240.22;;;19.19;64.25
57412;BME280;43247;52.828;-8.980;2022-12-07T19:16:53;102239.02;;;19.35;64.07
57412;BME280;43247;52.828;-8.980;2022-12-07T19:27:20;102228.78;;;17.09;71.55
57412;BME280;43247;52.828;-8.980;2022-12-07T19:35:05;102251.78;;;9.36;62.79
57412;BME280;43247;52.828;-8.980;2022-12-07T19:37:33;102254.82;;;9.35;61.73
57412;BME280;43247;52.828;-8.980;2022-12-07T19:40:07;102250.69;;;8.43;63.16
57412;BME280;43247;52.828;-8.980;2022-12-07T19:42:37;102250.16;;;7.67;66.45
57412;BME280;43247;52.828;-8.980;2022-12-07T19:45:08;102250.75;;;7.23;66.76
57412;BME280;43247;52.828;-8.980;2022-12-07T19:47:38;102251.27;;;6.74;68.67
57412;BME280;43247;52.828;-8.980;2022-12-07T19:50:09;102250.09;;;6.35;69.86
57412;BME280;43247;52.828;-8.980;2022-12-07T19:52:39;102250.65;;;6.11;70.53
57412;BME280;43247;52.828;-8.980;2022-12-07T19:55:10;102251.15;;;5.97;70.90
57412;BME280;43247;52.828;-8.980;2022-12-07T19:57:40;102252.30;;;5.86;71.21
57412;BME280;43247;52.828;-8.980;2022-12-07T20:00:12;102252.11;;;5.79;71.30
57412;BME280;43247;52.828;-8.980;2022-12-07T20:02:41;102250.18;;;5.69;71.97
57412;BME280;43247;52.828;-8.980;2022-12-07T20:05:11;102249.68;;;5.91;71.73
57412;BME280;43247;52.828;-8.980;2022-12-07T20:07:41;102246.01;;;6.40;70.94
57412;BME280;43247;52.828;-8.980;2022-12-07T20:10:12;102244.79;;;6.81;70.32
57412;BME280;43247;52.828;-8.980;2022-12-07T20:12:42;102248.27;;;7.13;69.91
57412;BME280;43247;52.828;-8.980;2022-12-07T20:15:13;102250.18;;;7.25;69.32
57412;BME280;43247;52.828;-8.980;2022-12-07T20:17:43;102247.42;;;7.17;68.66
57412;BME280;43247;52.828;-8.980;2022-12-07T20:20:14;102238.77;;;6.91;69.23
57412;BME280;43247;52.828;-8.980;2022-12-07T20:22:44;102234.65;;;6.68;69.94
57412;BME280;43247;52.828;-8.980;2022-12-07T20:25:15;102231.34;;;6.49;70.83
57412;BME280;43247;52.828;-8.980;2022-12-07T20:27:45;102226.82;;;6.32;71.45
57412;BME280;43247;52.828;-8.980;2022-12-07T20:30:15;102226.28;;;6.18;71.81
57412;BME280;43247;52.828;-8.980;2022-12-07T20:32:45;102223.82;;;6.01;72.16
57412;BME280;43247;52.828;-8.980;2022-12-07T20:35:16;102221.31;;;5.90;72.38
57412;BME280;43247;52.828;-8.980;2022-12-07T20:37:47;102222.01;;;5.90;72.24
57412;BME280;43247;52.828;-8.980;2022-12-07T20:40:17;102219.12;;;6.16;71.59
57412;BME280;43247;52.828;-8.980;2022-12-07T20:42:47;102215.55;;;6.53;70.75
57412;BME280;43247;52.828;-8.980;2022-12-07T20:45:18;102210.10;;;6.84;70.17
57412;BME280;43247;52.828;-8.980;2022-12-07T20:47:48;102204.48;;;7.13;69.36
57412;BME280;43247;52.828;-8.980;2022-12-07T20:50:19;102201.15;;;7.15;68.85
57412;BME280;43247;52.828;-8.980;2022-12-07T20:52:49;102197.43;;;7.01;69.11
57412;BME280;43247;52.828;-8.980;2022-12-07T20:55:20;102195.14;;;6.85;69.52
57412;BME280;43247;52.828;-8.980;2022-12-07T20:57:50;102195.76;;;6.68;70.00
57412;BME280;43247;52.828;-8.980;2022-12-07T21:00:21;102193.23;;;6.51;70.73
57412;BME280;43247;52.828;-8.980;2022-12-07T21:02:50;102195.25;;;6.35;71.23
57412;BME280;43247;52.828;-8.980;2022-12-07T21:05:21;102193.41;;;6.21;71.71
57412;BME280;43247;52.828;-8.980;2022-12-07T21:07:51;102190.09;;;6.05;71.82
57412;BME280;43247;52.828;-8.980;2022-12-07T21:10:21;102187.06;;;5.98;71.97
57412;BME280;43247;52.828;-8.980;2022-12-07T21:12:51;102183.35;;;6.19;71.50
57412;BME280;43247;52.828;-8.980;2022-12-07T21:15:22;102187.98;;;6.58;70.79
57412;BME280;43247;52.828;-8.980;2022-12-07T21:17:52;102189.80;;;6.92;70.11
57412;BME280;43247;52.828;-8.980;2022-12-07T21:20:23;102187.24;;;7.22;69.53
57412;BME280;43247;52.828;-8.980;2022-12-07T21:22:53;102183.32;;;7.31;69.20
57412;BME280;43247;52.828;-8.980;2022-12-07T21:25:24;102180.04;;;7.21;68.87
57412;BME280;43247;52.828;-8.980;2022-12-07T21:27:54;102178.17;;;7.03;69.13
57412;BME280;43247;52.828;-8.980;2022-12-07T21:30:25;102175.45;;;6.86;69.74
57412;BME280;43247;52.828;-8.980;2022-12-07T21:32:55;102169.64;;;6.64;70.15
57412;BME280;43247;52.828;-8.980;2022-12-07T21:35:26;102169.79;;;6.46;70.88
57412;BME280;43247;52.828;-8.980;2022-12-07T21:37:57;102172.72;;;6.34;71.23
57412;BME280;43247;52.828;-8.980;2022-12-07T21:40:28;102171.26;;;6.24;71.64
57412;BME280;43247;52.828;-8.980;2022-12-07T21:42:58;102171.84;;;6.10;72.04
57412;BME280;43247;52.828;-8.980;2022-12-07T21:45:30;102171.50;;;6.18;71.68
57412;BME280;43247;52.828;-8.980;2022-12-07T21:47:59;102169.49;;;6.50;70.98
57412;BME280;43247;52.828;-8.980;2022-12-07T21:50:29;102170.37;;;6.90;70.22
57412;BME280;43247;52.828;-8.980;2022-12-07T21:53:00;102172.74;;;7.31;69.77
57412;BME280;43247;52.828;-8.980;2022-12-07T21:55:31;102167.20;;;7.52;69.21
57412;BME280;43247;52.828;-8.980;2022-12-07T21:58:00;102162.30;;;7.42;68.58
57412;BME280;43247;52.828;-8.980;2022-12-07T22:00:31;102164.82;;;7.19;68.98
57412;BME280;43247;52.828;-8.980;2022-12-07T22:03:03;102162.95;;;7.01;69.43
57412;BME280;43247;52.828;-8.980;2022-12-07T22:05:32;102157.71;;;6.85;70.13
57412;BME280;43247;52.828;-8.980;2022-12-07T22:08:03;102151.60;;;6.72;70.57
57412;BME280;43247;52.828;-8.980;2022-12-07T22:10:33;102148.41;;;6.58;71.12
57412;BME280;43247;52.828;-8.980;2022-12-07T22:13:03;102140.84;;;6.46;71.46
57412;BME280;43247;52.828;-8.980;2022-12-07T22:15:34;102135.38;;;6.36;71.75
57412;BME280;43247;52.828;-8.980;2022-12-07T22:18:04;102135.35;;;6.31;71.89
57412;BME280;43247;52.828;-8.980;2022-12-07T22:20:35;102135.62;;;6.48;71.57
57412;BME280;43247;52.828;-8.980;2022-12-07T22:23:06;102133.88;;;6.90;70.91
57412;BME280;43247;52.828;-8.980;2022-12-07T22:25:38;102131.13;;;7.32;70.27
57412;BME280;43247;52.828;-8.980;2022-12-07T22:28:07;102131.68;;;7.62;69.63
57412;BME280;43247;52.828;-8.980;2022-12-07T22:30:38;102132.48;;;7.65;69.33
57412;BME280;43247;52.828;-8.980;2022-12-07T22:33:08;102129.26;;;7.50;68.82
57412;BME280;43247;52.828;-8.980;2022-12-07T22:35:38;102124.29;;;7.31;69.29
57412;BME280;43247;52.828;-8.980;2022-12-07T22:38:08;102124.63;;;7.15;69.67
57412;BME280;43247;52.828;-8.980;2022-12-07T22:40:39;102123.30;;;6.98;70.14
57412;BME280;43247;52.828;-8.980;2022-12-07T22:43:10;102119.94;;;6.87;70.76
57412;BME280;43247;52.828;-8.980;2022-12-07T22:45:40;102116.24;;;6.76;71.20
57412;BME280;43247;52.828;-8.980;2022-12-07T22:48:10;102112.16;;;6.62;71.48
57412;BME280;43247;52.828;-8.980;2022-12-07T22:50:41;102107.88;;;6.50;71.75
57412;BME280;43247;52.828;-8.980;2022-12-07T22:53:12;102104.79;;;6.48;72.03
57412;BME280;43247;52.828;-8.980;2022-12-07T22:55:42;102106.40;;;6.76;71.37
57412;BME280;43247;52.828;-8.980;2022-12-07T22:58:14;102103.10;;;7.18;70.68
57412;BME280;43247;52.828;-8.980;2022-12-07T23:00:43;102102.36;;;7.62;70.09
57412;BME280;43247;52.828;-8.980;2022-12-07T23:03:14;102099.05;;;7.85;69.30
57412;BME280;43247;52.828;-8.980;2022-12-07T23:05:46;102095.60;;;7.75;68.90
57412;BME280;43247;52.828;-8.980;2022-12-07T23:08:16;102099.76;;;7.60;69.10
57412;BME280;43247;52.828;-8.980;2022-12-07T23:10:47;102098.05;;;7.43;69.34
57412;BME280;43247;52.828;-8.980;2022-12-07T23:13:17;102094.01;;;7.28;69.81
57412;BME280;43247;52.828;-8.980;2022-12-07T23:15:46;102088.67;;;7.14;70.43
57412;BME280;43247;52.828;-8.980;2022-12-07T23:18:16;102085.06;;;7.01;70.73
57412;BME280;43247;52.828;-8.980;2022-12-07T23:20:46;102084.94;;;6.89;71.00
57412;BME280;43247;52.828;-8.980;2022-12-07T23:23:17;102090.55;;;6.78;71.49
57412;BME280;43247;52.828;-8.980;2022-12-07T23:25:47;102088.93;;;6.68;71.74
57412;BME280;43247;52.828;-8.980;2022-12-07T23:28:18;102085.77;;;6.72;71.41
57412;BME280;43247;52.828;-8.980;2022-12-07T23:30:49;102082.80;;;7.03;70.88
57412;BME280;43247;52.828;-8.980;2022-12-07T23:33:18;102081.34;;;7.44;70.49
57412;BME280;43247;52.828;-8.980;2022-12-07T23:35:49;102079.99;;;7.83;69.79
57412;BME280;43247;52.828;-8.980;2022-12-07T23:38:20;102078.40;;;7.94;68.91
57412;BME280;43247;52.828;-8.980;2022-12-07T23:40:50;102075.29;;;7.82;68.66
57412;BME280;43247;52.828;-8.980;2022-12-07T23:43:20;102067.92;;;7.60;69.02
57412;BME280;43247;52.828;-8.980;2022-12-07T23:45:50;102071.24;;;7.39;69.51
57412;BME280;43247;52.828;-8.980;2022-12-07T23:48:20;102067.85;;;7.21;70.03
57412;BME280;43247;52.828;-8.980;2022-12-07T23:50:50;102065.77;;;7.07;70.67
57412;BME280;43247;52.828;-8.980;2022-12-07T23:53:21;102059.95;;;6.92;71.06
57412;BME280;43247;52.828;-8.980;2022-12-07T23:55:51;102061.62;;;6.76;71.79
57412;BME280;43247;52.828;-8.980;2022-12-07T23:58:22;102061.39;;;6.58;72.01
